sensor_id;sensor_type;location;lat;lon;timestamp;temperature;humidity
2783;DHT22;1399;47.072;15.452;2023-08-12T00:01:11;17.50;84.30
2783;DHT22;1399;47.072;15.452;2023-08-12T00:03:37;17.50;84.30
2783;DHT22;1399;47.072;15.452;2023-08-12T00:06:03;17.50;84.30
2783;DHT22;1399;47.072;15.452;2023-08-12T00:08:31;17.50;84.30
2783;DHT22;1399;47.072;15.452;2023-08-12T00:10:57;17.50;84.30
2783;DHT22;1399;47.072;15.452;2023-08-12T00:13:23;17.50;84.50
2783;DHT22;1399;47.072;15.452;2023-08-12T00:15:49;17.50;84.50
2783;DHT22;1399;47.072;15.452;2023-08-12T00:18:14;17.50;84.60
2783;DHT22;1399;47.072;15.452;2023-08-12T00:20:41;17.40;84.60
2783;DHT22;1399;47.072;15.452;2023-08-12T00:23:08;17.40;84.60
2783;DHT22;1399;47.072;15.452;2023-08-12T00:25:34;17.40;84.60
2783;DHT22;1399;47.072;15.452;2023-08-12T00:28:00;17.40;84.70
2783;DHT22;1399;47.072;15.452;2023-08-12T00:30:26;17.40;84.70
2783;DHT22;1399;47.072;15.452;2023-08-12T00:32:52;17.40;84.70
2783;DHT22;1399;47.072;15.452;2023-08-12T00:35:17;17.40;84.70
2783;DHT22;1399;47.072;15.452;2023-08-12T00:37:43;17.40;84.80
2783;DHT22;1399;47.072;15.452;2023-08-12T00:40:09;17.40;84.80
2783;DHT22;1399;47.072;15.452;2023-08-12T00:42:35;17.30;84.70
2783;DHT22;1399;47.072;15.452;2023-08-12T00:45:01;17.30;84.70
2783;DHT22;1399;47.072;15.452;2023-08-12T00:47:28;17.30;84.80
2783;DHT22;1399;47.072;15.452;2023-08-12T00:49:56;17.30;84.80
2783;DHT22;1399;47.072;15.452;2023-08-12T00:52:24;17.30;84.80
2783;DHT22;1399;47.072;15.452;2023-08-12T00:54:50;17.30;84.90
2783;DHT22;1399;47.072;15.452;2023-08-12T00:57:16;17.30;84.90
2783;DHT22;1399;47.072;15.452;2023-08-12T00:59:44;17.20;84.80
2783;DHT22;1399;47.072;15.452;2023-08-12T01:02:12;17.30;85.00
2783;DHT22;1399;47.072;15.452;2023-08-12T01:04:38;17.20;84.90
2783;DHT22;1399;47.072;15.452;2023-08-12T01:07:03;17.20;85.00
2783;DHT22;1399;47.072;15.452;2023-08-12T01:09:30;17.20;85.00
2783;DHT22;1399;47.072;15.452;2023-08-12T01:15:13;17.20;85.10
2783;DHT22;1399;47.072;15.452;2023-08-12T01:17:42;17.20;85.10
2783;DHT22;1399;47.072;15.452;2023-08-12T01:20:09;17.20;85.10
2783;DHT22;1399;47.072;15.452;2023-08-12T01:22:39;17.20;85.10
2783;DHT22;1399;47.072;15.452;2023-08-12T01:25:06;17.10;85.10
2783;DHT22;1399;47.072;15.452;2023-08-12T01:27:35;17.20;85.20
2783;DHT22;1399;47.072;15.452;2023-08-12T01:30:02;17.10;85.20
2783;DHT22;1399;47.072;15.452;2023-08-12T01:32:52;17.10;85.20
2783;DHT22;1399;47.072;15.452;2023-08-12T01:35:47;17.10;85.30
2783;DHT22;1399;47.072;15.452;2023-08-12T01:38:18;17.10;85.30
2783;DHT22;1399;47.072;15.452;2023-08-12T01:40:45;17.00;85.20
2783;DHT22;1399;47.072;15.452;2023-08-12T01:43:12;17.00;85.30
2783;DHT22;1399;47.072;15.452;2023-08-12T01:45:38;17.00;85.30
2783;DHT22;1399;47.072;15.452;2023-08-12T01:48:06;17.00;85.30
2783;DHT22;1399;47.072;15.452;2023-08-12T01:50:32;17.00;85.40
2783;DHT22;1399;47.072;15.452;2023-08-12T01:52:58;17.00;86.10
2783;DHT22;1399;47.072;15.452;2023-08-12T01:55:24;17.00;85.30
2783;DHT22;1399;47.072;15.452;2023-08-12T01:57:50;17.00;85.30
2783;DHT22;1399;47.072;15.452;2023-08-12T02:00:16;17.00;85.30
2783;DHT22;1399;47.072;15.452;2023-08-12T02:02:42;16.90;85.20
2783;DHT22;1399;47.072;15.452;2023-08-12T02:05:08;16.90;85.20
2783;DHT22;1399;47.072;15.452;2023-08-12T02:07:33;16.90;85.30
2783;DHT22;1399;47.072;15.452;2023-08-12T02:09:59;16.90;85.30
2783;DHT22;1399;47.072;15.452;2023-08-12T02:12:25;17.00;85.40
2783;DHT22;1399;47.072;15.452;2023-08-12T02:14:50;16.90;85.30
2783;DHT22;1399;47.072;15.452;2023-08-12T02:17:16;16.90;85.30
2783;DHT22;1399;47.072;15.452;2023-08-12T02:19:42;16.90;85.30
2783;DHT22;1399;47.072;15.452;2023-08-12T02:22:08;16.90;85.30
2783;DHT22;1399;47.072;15.452;2023-08-12T02:24:35;16.90;85.30
2783;DHT22;1399;47.072;15.452;2023-08-12T02:27:01;16.90;85.40
2783;DHT22;1399;47.072;15.452;2023-08-12T02:29:27;16.90;85.30
2783;DHT22;1399;47.072;15.452;2023-08-12T02:31:53;16.90;85.30
2783;DHT22;1399;47.072;15.452;2023-08-12T02:34:18;16.90;85.40
2783;DHT22;1399;47.072;15.452;2023-08-12T02:36:44;16.90;85.40
2783;DHT22;1399;47.072;15.452;2023-08-12T02:39:10;16.90;85.40
2783;DHT22;1399;47.072;15.452;2023-08-12T02:41:35;16.90;85.40
2783;DHT22;1399;47.072;15.452;2023-08-12T02:44:01;16.90;85.40
2783;DHT22;1399;47.072;15.452;2023-08-12T02:46:28;16.80;85.30
2783;DHT22;1399;47.072;15.452;2023-08-12T02:48:53;16.80;85.40
2783;DHT22;1399;47.072;15.452;2023-08-12T02:51:19;16.80;85.30
2783;DHT22;1399;47.072;15.452;2023-08-12T02:53:45;16.80;85.30
2783;DHT22;1399;47.072;15.452;2023-08-12T02:56:10;16.80;85.30
2783;DHT22;1399;47.072;15.452;2023-08-12T02:58:36;16.80;85.30
2783;DHT22;1399;47.072;15.452;2023-08-12T03:01:03;16.80;85.30
2783;DHT22;1399;47.072;15.452;2023-08-12T03:03:32;16.70;85.30
2783;DHT22;1399;47.072;15.452;2023-08-12T03:05:58;16.70;85.30
2783;DHT22;1399;47.072;15.452;2023-08-12T03:08:23;16.80;85.40
2783;DHT22;1399;47.072;15.452;2023-08-12T03:10:50;16.70;85.30
2783;DHT22;1399;47.072;15.452;2023-08-12T03:13:15;16.70;85.30
2783;DHT22;1399;47.072;15.452;2023-08-12T03:15:41;16.70;85.30
2783;DHT22;1399;47.072;15.452;2023-08-12T03:18:08;16.70;85.30
2783;DHT22;1399;47.072;15.452;2023-08-12T03:20:34;16.60;85.30
2783;DHT22;1399;47.072;15.452;2023-08-12T03:23:00;16.70;85.30
2783;DHT22;1399;47.072;15.452;2023-08-12T03:25:26;16.70;85.40
2783;DHT22;1399;47.072;15.452;2023-08-12T03:27:51;16.60;85.30
2783;DHT22;1399;47.072;15.452;2023-08-12T03:30:17;16.60;85.30
2783;DHT22;1399;47.072;15.452;2023-08-12T03:32:43;16.60;86.20
2783;DHT22;1399;47.072;15.452;2023-08-12T03:35:09;16.60;85.30
2783;DHT22;1399;47.072;15.452;2023-08-12T03:37:35;16.60;86.20
2783;DHT22;1399;47.072;15.452;2023-08-12T03:40:01;16.60;85.40
2783;DHT22;1399;47.072;15.452;2023-08-12T03:42:26;16.60;85.40
2783;DHT22;1399;47.072;15.452;2023-08-12T03:44:52;16.60;85.40
2783;DHT22;1399;47.072;15.452;2023-08-12T03:47:18;16.60;85.30
2783;DHT22;1399;47.072;15.452;2023-08-12T03:49:47;16.50;85.30
2783;DHT22;1399;47.072;15.452;2023-08-12T03:52:13;16.50;85.30
2783;DHT22;1399;47.072;15.452;2023-08-12T03:54:39;16.50;85.20
2783;DHT22;1399;47.072;15.452;2023-08-12T03:57:04;16.50;85.20
2783;DHT22;1399;47.072;15.452;2023-08-12T03:59:31;16.50;85.20
2783;DHT22;1399;47.072;15.452;2023-08-12T04:01:56;16.50;85.20
2783;DHT22;1399;47.072;15.452;2023-08-12T04:04:23;16.50;85.10
2783;DHT22;1399;47.072;15.452;2023-08-12T04:06:49;16.50;85.10
2783;DHT22;1399;47.072;15.452;2023-08-12T04:09:17;16.50;85.10
2783;DHT22;1399;47.072;15.452;2023-08-12T04:11:44;16.50;85.10
2783;DHT22;1399;47.072;15.452;2023-08-12T04:14:10;16.50;85.10
2783;DHT22;1399;47.072;15.452;2023-08-12T04:16:36;16.50;85.10
2783;DHT22;1399;47.072;15.452;2023-08-12T04:19:02;16.40;85.00
2783;DHT22;1399;47.072;15.452;2023-08-12T04:21:28;16.40;84.90
2783;DHT22;1399;47.072;15.452;2023-08-12T04:23:54;16.40;85.00
2783;DHT22;1399;47.072;15.452;2023-08-12T04:26:19;16.40;85.00
2783;DHT22;1399;47.072;15.452;2023-08-12T04:28:45;16.40;85.00
2783;DHT22;1399;47.072;15.452;2023-08-12T04:31:11;16.40;85.00
2783;DHT22;1399;47.072;15.452;2023-08-12T04:33:37;16.40;85.10
2783;DHT22;1399;47.072;15.452;2023-08-12T04:36:02;16.40;85.10
2783;DHT22;1399;47.072;15.452;2023-08-12T04:38:28;16.40;85.10
2783;DHT22;1399;47.072;15.452;2023-08-12T04:40:54;16.40;85.10
2783;DHT22;1399;47.072;15.452;2023-08-12T04:43:20;16.40;85.10
2783;DHT22;1399;47.072;15.452;2023-08-12T04:45:46;16.40;85.10
2783;DHT22;1399;47.072;15.452;2023-08-12T04:48:13;16.40;85.10
2783;DHT22;1399;47.072;15.452;2023-08-12T04:50:39;16.40;85.10
2783;DHT22;1399;47.072;15.452;2023-08-12T04:53:05;16.50;85.20
2783;DHT22;1399;47.072;15.452;2023-08-12T04:55:32;16.50;85.10
2783;DHT22;1399;47.072;15.452;2023-08-12T04:57:58;16.50;85.10
2783;DHT22;1399;47.072;15.452;2023-08-12T05:00:23;16.50;85.10
2783;DHT22;1399;47.072;15.452;2023-08-12T05:02:49;16.50;85.10
2783;DHT22;1399;47.072;15.452;2023-08-12T05:05:15;16.50;85.10
2783;DHT22;1399;47.072;15.452;2023-08-12T05:07:40;16.50;85.10
2783;DHT22;1399;47.072;15.452;2023-08-12T05:10:06;16.60;85.10
2783;DHT22;1399;47.072;15.452;2023-08-12T05:12:32;16.60;85.00
2783;DHT22;1399;47.072;15.452;2023-08-12T05:14:58;16.60;85.00
2783;DHT22;1399;47.072;15.452;2023-08-12T05:17:24;16.60;85.00
2783;DHT22;1399;47.072;15.452;2023-08-12T05:19:50;16.70;85.10
2783;DHT22;1399;47.072;15.452;2023-08-12T05:22:16;16.70;85.10
2783;DHT22;1399;47.072;15.452;2023-08-12T05:24:42;16.70;85.00
2783;DHT22;1399;47.072;15.452;2023-08-12T05:27:07;16.70;85.00
2783;DHT22;1399;47.072;15.452;2023-08-12T05:29:33;16.80;85.10
2783;DHT22;1399;47.072;15.452;2023-08-12T05:31:59;16.80;85.10
2783;DHT22;1399;47.072;15.452;2023-08-12T05:34:24;16.80;85.00
2783;DHT22;1399;47.072;15.452;2023-08-12T05:36:50;16.80;85.00
2783;DHT22;1399;47.072;15.452;2023-08-12T05:39:16;16.90;85.20
2783;DHT22;1399;47.072;15.452;2023-08-12T05:41:42;16.90;85.10
2783;DHT22;1399;47.072;15.452;2023-08-12T05:44:07;17.00;85.20
2783;DHT22;1399;47.072;15.452;2023-08-12T05:46:33;17.00;85.20
2783;DHT22;1399;47.072;15.452;2023-08-12T05:48:59;17.00;85.20
2783;DHT22;1399;47.072;15.452;2023-08-12T05:51:25;17.10;85.20
2783;DHT22;1399;47.072;15.452;2023-08-12T05:53:51;17.10;85.10
2783;DHT22;1399;47.072;15.452;2023-08-12T05:56:17;17.20;85.10
2783;DHT22;1399;47.072;15.452;2023-08-12T05:58:43;17.20;85.00
2783;DHT22;1399;47.072;15.452;2023-08-12T06:01:09;17.30;85.80
2783;DHT22;1399;47.072;15.452;2023-08-12T06:03:35;17.30;84.80
2783;DHT22;1399;47.072;15.452;2023-08-12T06:06:00;17.50;85.20
2783;DHT22;1399;47.072;15.452;2023-08-12T06:08:26;18.60;84.40
2783;DHT22;1399;47.072;15.452;2023-08-12T06:10:52;20.20;80.20
2783;DHT22;1399;47.072;15.452;2023-08-12T06:13:18;21.80;75.10
2783;DHT22;1399;47.072;15.452;2023-08-12T06:15:43;23.20;69.80
2783;DHT22;1399;47.072;15.452;2023-08-12T06:18:09;24.30;65.00
2783;DHT22;1399;47.072;15.452;2023-08-12T06:20:35;25.20;61.70
2783;DHT22;1399;47.072;15.452;2023-08-12T06:23:01;26.00;58.80
2783;DHT22;1399;47.072;15.452;2023-08-12T06:25:27;26.80;56.70
2783;DHT22;1399;47.072;15.452;2023-08-12T06:27:53;27.40;54.90
2783;DHT22;1399;47.072;15.452;2023-08-12T06:30:18;27.90;53.30
2783;DHT22;1399;47.072;15.452;2023-08-12T06:32:44;28.30;51.80
2783;DHT22;1399;47.072;15.452;2023-08-12T06:35:10;28.60;50.70
2783;DHT22;1399;47.072;15.452;2023-08-12T06:37:36;28.70;50.00
2783;DHT22;1399;47.072;15.452;2023-08-12T06:40:02;28.80;49.50
2783;DHT22;1399;47.072;15.452;2023-08-12T06:42:29;28.60;49.40
2783;DHT22;1399;47.072;15.452;2023-08-12T06:44:59;28.40;49.30
2783;DHT22;1399;47.072;15.452;2023-08-12T06:47:25;28.10;49.80
2783;DHT22;1399;47.072;15.452;2023-08-12T06:49:53;27.70;50.40
2783;DHT22;1399;47.072;15.452;2023-08-12T06:52:19;27.30;51.30
2783;DHT22;1399;47.072;15.452;2023-08-12T06:54:44;26.90;52.20
2783;DHT22;1399;47.072;15.452;2023-08-12T06:57:10;26.50;53.00
2783;DHT22;1399;47.072;15.452;2023-08-12T06:59:37;26.20;53.90
2783;DHT22;1399;47.072;15.452;2023-08-12T07:02:03;25.90;54.80
2783;DHT22;1399;47.072;15.452;2023-08-12T07:04:29;25.70;55.50
2783;DHT22;1399;47.072;15.452;2023-08-12T07:06:55;25.40;56.20
2783;DHT22;1399;47.072;15.452;2023-08-12T07:09:21;25.20;56.90
2783;DHT22;1399;47.072;15.452;2023-08-12T07:11:47;25.00;57.60
2783;DHT22;1399;47.072;15.452;2023-08-12T07:14:12;24.80;58.30
2783;DHT22;1399;47.072;15.452;2023-08-12T07:16:38;24.60;59.00
2783;DHT22;1399;47.072;15.452;2023-08-12T07:19:04;24.40;59.70
2783;DHT22;1399;47.072;15.452;2023-08-12T07:21:30;24.10;60.40
2783;DHT22;1399;47.072;15.452;2023-08-12T07:23:55;23.90;61.40
2783;DHT22;1399;47.072;15.452;2023-08-12T07:26:21;23.70;62.30
2783;DHT22;1399;47.072;15.452;2023-08-12T07:28:47;23.50;63.20
2783;DHT22;1399;47.072;15.452;2023-08-12T07:31:13;23.30;64.00
2783;DHT22;1399;47.072;15.452;2023-08-12T07:33:39;23.20;64.80
2783;DHT22;1399;47.072;15.452;2023-08-12T07:36:05;23.00;65.30
2783;DHT22;1399;47.072;15.452;2023-08-12T07:38:31;22.90;65.90
2783;DHT22;1399;47.072;15.452;2023-08-12T07:40:57;22.80;66.40
2783;DHT22;1399;47.072;15.452;2023-08-12T07:43:22;22.70;66.90
2783;DHT22;1399;47.072;15.452;2023-08-12T07:45:54;22.60;67.10
2783;DHT22;1399;47.072;15.452;2023-08-12T07:48:20;22.50;67.60
2783;DHT22;1399;47.072;15.452;2023-08-12T07:50:46;22.50;68.00
2783;DHT22;1399;47.072;15.452;2023-08-12T07:53:15;22.40;68.30
2783;DHT22;1399;47.072;15.452;2023-08-12T07:55:42;22.40;68.70
2783;DHT22;1399;47.072;15.452;2023-08-12T07:58:08;22.30;68.90
2783;DHT22;1399;47.072;15.452;2023-08-12T08:00:33;22.30;69.20
2783;DHT22;1399;47.072;15.452;2023-08-12T08:02:59;22.30;69.40
2783;DHT22;1399;47.072;15.452;2023-08-12T08:05:25;22.20;69.60
2783;DHT22;1399;47.072;15.452;2023-08-12T08:07:51;22.20;69.80
2783;DHT22;1399;47.072;15.452;2023-08-12T08:10:17;22.20;70.10
2783;DHT22;1399;47.072;15.452;2023-08-12T08:12:42;22.10;70.20
2783;DHT22;1399;47.072;15.452;2023-08-12T08:15:08;22.10;70.40
2783;DHT22;1399;47.072;15.452;2023-08-12T08:17:34;22.10;70.60
2783;DHT22;1399;47.072;15.452;2023-08-12T08:20:00;22.10;70.70
2783;DHT22;1399;47.072;15.452;2023-08-12T08:22:26;22.00;70.70
2783;DHT22;1399;47.072;15.452;2023-08-12T08:24:51;22.00;70.90
2783;DHT22;1399;47.072;15.452;2023-08-12T08:27:17;22.00;71.10
2783;DHT22;1399;47.072;15.452;2023-08-12T08:29:43;22.00;71.20
2783;DHT22;1399;47.072;15.452;2023-08-12T08:32:09;22.00;71.30
2783;DHT22;1399;47.072;15.452;2023-08-12T08:34:34;22.00;71.40
2783;DHT22;1399;47.072;15.452;2023-08-12T08:37:00;22.00;71.60
2783;DHT22;1399;47.072;15.452;2023-08-12T08:39:26;21.90;71.50
2783;DHT22;1399;47.072;15.452;2023-08-12T08:41:54;21.90;71.60
2783;DHT22;1399;47.072;15.452;2023-08-12T08:44:22;21.90;71.70
2783;DHT22;1399;47.072;15.452;2023-08-12T08:46:52;21.90;71.70
2783;DHT22;1399;47.072;15.452;2023-08-12T08:49:21;21.90;71.80
2783;DHT22;1399;47.072;15.452;2023-08-12T08:51:49;21.90;71.90
2783;DHT22;1399;47.072;15.452;2023-08-12T08:54:15;21.90;72.00
2783;DHT22;1399;47.072;15.452;2023-08-12T08:56:42;21.90;72.00
2783;DHT22;1399;47.072;15.452;2023-08-12T08:59:08;21.90;72.10
2783;DHT22;1399;47.072;15.452;2023-08-12T09:01:35;21.90;72.20
2783;DHT22;1399;47.072;15.452;2023-08-12T09:04:03;21.90;72.20
2783;DHT22;1399;47.072;15.452;2023-08-12T09:06:29;21.90;72.30
2783;DHT22;1399;47.072;15.452;2023-08-12T09:08:56;21.90;72.30
2783;DHT22;1399;47.072;15.452;2023-08-12T09:11:23;21.90;72.30
2783;DHT22;1399;47.072;15.452;2023-08-12T09:13:49;21.90;72.30
2783;DHT22;1399;47.072;15.452;2023-08-12T09:16:15;21.90;72.30
2783;DHT22;1399;47.072;15.452;2023-08-12T09:18:44;21.90;72.30
2783;DHT22;1399;47.072;15.452;2023-08-12T09:21:10;21.90;72.30
2783;DHT22;1399;47.072;15.452;2023-08-12T09:23:40;21.90;72.20
2783;DHT22;1399;47.072;15.452;2023-08-12T09:26:20;21.90;72.20
2783;DHT22;1399;47.072;15.452;2023-08-12T09:28:47;21.90;72.30
2783;DHT22;1399;47.072;15.452;2023-08-12T09:31:24;21.90;72.30
2783;DHT22;1399;47.072;15.452;2023-08-12T09:33:51;21.90;72.30
2783;DHT22;1399;47.072;15.452;2023-08-12T09:36:18;21.90;72.30
2783;DHT22;1399;47.072;15.452;2023-08-12T09:38:44;21.90;72.40
2783;DHT22;1399;47.072;15.452;2023-08-12T09:41:10;21.90;72.30
2783;DHT22;1399;47.072;15.452;2023-08-12T09:43:41;21.90;72.20
2783;DHT22;1399;47.072;15.452;2023-08-12T09:46:10;21.90;72.20
2783;DHT22;1399;47.072;15.452;2023-08-12T09:48:38;21.90;72.10
2783;DHT22;1399;47.072;15.452;2023-08-12T09:51:04;21.90;72.10
2783;DHT22;1399;47.072;15.452;2023-08-12T09:53:30;21.90;72.10
2783;DHT22;1399;47.072;15.452;2023-08-12T09:55:57;21.90;72.10
2783;DHT22;1399;47.072;15.452;2023-08-12T09:58:27;21.90;72.00
2783;DHT22;1399;47.072;15.452;2023-08-12T10:00:54;21.90;72.00
2783;DHT22;1399;47.072;15.452;2023-08-12T10:03:22;21.90;72.00
2783;DHT22;1399;47.072;15.452;2023-08-12T10:05:48;22.00;72.00
2783;DHT22;1399;47.072;15.452;2023-08-12T10:08:15;22.00;72.00
2783;DHT22;1399;47.072;15.452;2023-08-12T10:10:42;22.00;71.90
2783;DHT22;1399;47.072;15.452;2023-08-12T10:13:10;22.00;71.90
2783;DHT22;1399;47.072;15.452;2023-08-12T10:15:36;22.00;71.80
2783;DHT22;1399;47.072;15.452;2023-08-12T10:18:05;22.00;71.80
2783;DHT22;1399;47.072;15.452;2023-08-12T10:20:32;22.00;71.80
2783;DHT22;1399;47.072;15.452;2023-08-12T10:22:59;22.00;71.80
2783;DHT22;1399;47.072;15.452;2023-08-12T10:25:31;22.00;71.80
2783;DHT22;1399;47.072;15.452;2023-08-12T10:27:58;22.00;71.80
2783;DHT22;1399;47.072;15.452;2023-08-12T10:30:23;22.00;71.80
2783;DHT22;1399;47.072;15.452;2023-08-12T10:32:50;22.10;72.00
2783;DHT22;1399;47.072;15.452;2023-08-12T10:35:16;22.10;71.90
2783;DHT22;1399;47.072;15.452;2023-08-12T10:37:42;22.10;71.90
2783;DHT22;1399;47.072;15.452;2023-08-12T10:40:22;22.10;71.90
2783;DHT22;1399;47.072;15.452;2023-08-12T10:42:50;22.10;71.80
2783;DHT22;1399;47.072;15.452;2023-08-12T10:45:17;22.10;71.80
2783;DHT22;1399;47.072;15.452;2023-08-12T10:50:26;22.10;71.90
2783;DHT22;1399;47.072;15.452;2023-08-12T10:52:53;22.10;71.80
2783;DHT22;1399;47.072;15.452;2023-08-12T10:55:21;22.10;71.80
2783;DHT22;1399;47.072;15.452;2023-08-12T10:57:48;22.10;71.80
2783;DHT22;1399;47.072;15.452;2023-08-12T11:00:19;22.10;71.70
2783;DHT22;1399;47.072;15.452;2023-08-12T11:02:50;22.20;71.90
2783;DHT22;1399;47.072;15.452;2023-08-12T11:05:17;22.20;71.90
2783;DHT22;1399;47.072;15.452;2023-08-12T11:07:57;22.20;71.80
2783;DHT22;1399;47.072;15.452;2023-08-12T11:10:25;22.20;71.70
2783;DHT22;1399;47.072;15.452;2023-08-12T11:15:19;22.20;71.60
2783;DHT22;1399;47.072;15.452;2023-08-12T11:17:54;22.20;71.60
2783;DHT22;1399;47.072;15.452;2023-08-12T11:20:21;22.20;71.50
2783;DHT22;1399;47.072;15.452;2023-08-12T11:22:47;22.20;71.60
2783;DHT22;1399;47.072;15.452;2023-08-12T11:25:14;22.20;71.60
2783;DHT22;1399;47.072;15.452;2023-08-12T11:27:40;22.20;71.50
2783;DHT22;1399;47.072;15.452;2023-08-12T11:30:07;22.30;71.70
2783;DHT22;1399;47.072;15.452;2023-08-12T11:32:34;22.30;71.70
2783;DHT22;1399;47.072;15.452;2023-08-12T11:35:00;22.30;71.60
2783;DHT22;1399;47.072;15.452;2023-08-12T11:37:26;22.30;71.50
2783;DHT22;1399;47.072;15.452;2023-08-12T11:39:52;22.30;71.50
2783;DHT22;1399;47.072;15.452;2023-08-12T11:42:18;22.30;71.40
2783;DHT22;1399;47.072;15.452;2023-08-12T11:44:44;22.30;71.40
2783;DHT22;1399;47.072;15.452;2023-08-12T11:47:10;22.30;71.40
2783;DHT22;1399;47.072;15.452;2023-08-12T11:49:35;22.30;71.30
2783;DHT22;1399;47.072;15.452;2023-08-12T11:52:01;22.40;71.30
2783;DHT22;1399;47.072;15.452;2023-08-12T11:54:28;22.30;71.20
2783;DHT22;1399;47.072;15.452;2023-08-12T11:56:54;22.40;71.20
2783;DHT22;1399;47.072;15.452;2023-08-12T11:59:22;22.40;71.30
2783;DHT22;1399;47.072;15.452;2023-08-12T12:01:51;22.40;71.20
2783;DHT22;1399;47.072;15.452;2023-08-12T12:04:17;22.40;71.20
2783;DHT22;1399;47.072;15.452;2023-08-12T12:06:46;22.40;71.10
2783;DHT22;1399;47.072;15.452;2023-08-12T12:09:15;22.40;71.10
2783;DHT22;1399;47.072;15.452;2023-08-12T12:11:44;22.40;71.10
2783;DHT22;1399;47.072;15.452;2023-08-12T12:14:10;22.40;71.10
2783;DHT22;1399;47.072;15.452;2023-08-12T12:16:44;22.40;71.20
2783;DHT22;1399;47.072;15.452;2023-08-12T12:21:40;22.40;71.10
2783;DHT22;1399;47.072;15.452;2023-08-12T12:24:10;22.40;71.00
2783;DHT22;1399;47.072;15.452;2023-08-12T12:26:36;22.40;71.00
2783;DHT22;1399;47.072;15.452;2023-08-12T12:29:04;22.40;70.90
2783;DHT22;1399;47.072;15.452;2023-08-12T12:31:35;22.50;71.00
2783;DHT22;1399;47.072;15.452;2023-08-12T12:34:02;22.40;70.90
2783;DHT22;1399;47.072;15.452;2023-08-12T12:36:35;22.50;71.00
2783;DHT22;1399;47.072;15.452;2023-08-12T12:39:03;22.50;71.00
2783;DHT22;1399;47.072;15.452;2023-08-12T12:41:29;22.50;71.00
2783;DHT22;1399;47.072;15.452;2023-08-12T12:43:55;22.50;71.70
2783;DHT22;1399;47.072;15.452;2023-08-12T12:46:21;22.50;70.80
2783;DHT22;1399;47.072;15.452;2023-08-12T12:48:47;22.50;70.70
2783;DHT22;1399;47.072;15.452;2023-08-12T12:51:13;22.50;70.80
2783;DHT22;1399;47.072;15.452;2023-08-12T12:53:40;22.50;70.70
2783;DHT22;1399;47.072;15.452;2023-08-12T12:59:28;22.50;71.50
2783;DHT22;1399;47.072;15.452;2023-08-12T13:01:54;22.50;70.50
2783;DHT22;1399;47.072;15.452;2023-08-12T13:04:19;22.60;70.60
2783;DHT22;1399;47.072;15.452;2023-08-12T13:06:45;22.50;70.30
2783;DHT22;1399;47.072;15.452;2023-08-12T13:09:11;22.50;70.30
2783;DHT22;1399;47.072;15.452;2023-08-12T13:11:37;22.60;70.40
2783;DHT22;1399;47.072;15.452;2023-08-12T13:14:03;22.60;70.30
2783;DHT22;1399;47.072;15.452;2023-08-12T13:16:30;22.60;70.20
2783;DHT22;1399;47.072;15.452;2023-08-12T13:18:56;22.50;70.10
2783;DHT22;1399;47.072;15.452;2023-08-12T13:21:26;22.60;70.20
2783;DHT22;1399;47.072;15.452;2023-08-12T13:23:52;22.60;70.20
2783;DHT22;1399;47.072;15.452;2023-08-12T13:26:21;22.60;70.20
2783;DHT22;1399;47.072;15.452;2023-08-12T13:28:47;22.60;70.20
2783;DHT22;1399;47.072;15.452;2023-08-12T13:31:13;22.60;70.20
2783;DHT22;1399;47.072;15.452;2023-08-12T13:33:39;22.60;70.30
2783;DHT22;1399;47.072;15.452;2023-08-12T13:36:05;22.60;70.20
2783;DHT22;1399;47.072;15.452;2023-08-12T13:38:31;22.60;70.20
2783;DHT22;1399;47.072;15.452;2023-08-12T13:40:56;22.60;70.10
2783;DHT22;1399;47.072;15.452;2023-08-12T13:43:22;22.60;71.10
2783;DHT22;1399;47.072;15.452;2023-08-12T13:45:48;22.60;70.20
2783;DHT22;1399;47.072;15.452;2023-08-12T13:48:14;22.60;70.20
2783;DHT22;1399;47.072;15.452;2023-08-12T13:50:40;22.60;70.30
2783;DHT22;1399;47.072;15.452;2023-08-12T13:53:06;22.60;70.30
2783;DHT22;1399;47.072;15.452;2023-08-12T13:55:32;22.60;70.20
2783;DHT22;1399;47.072;15.452;2023-08-12T13:57:58;22.60;70.30
2783;DHT22;1399;47.072;15.452;2023-08-12T14:00:24;22.60;70.30
2783;DHT22;1399;47.072;15.452;2023-08-12T14:02:50;22.60;70.30
2783;DHT22;1399;47.072;15.452;2023-08-12T14:05:16;22.60;70.20
2783;DHT22;1399;47.072;15.452;2023-08-12T14:07:42;22.70;70.50
2783;DHT22;1399;47.072;15.452;2023-08-12T14:10:08;22.70;70.50
2783;DHT22;1399;47.072;15.452;2023-08-12T14:12:34;22.60;70.30
2783;DHT22;1399;47.072;15.452;2023-08-12T14:15:00;22.60;70.40
2783;DHT22;1399;47.072;15.452;2023-08-12T14:17:26;22.60;70.30
2783;DHT22;1399;47.072;15.452;2023-08-12T14:19:52;22.60;70.30
2783;DHT22;1399;47.072;15.452;2023-08-12T14:22:21;22.60;70.30
2783;DHT22;1399;47.072;15.452;2023-08-12T14:24:47;22.60;70.20
2783;DHT22;1399;47.072;15.452;2023-08-12T14:27:16;22.60;70.20
2783;DHT22;1399;47.072;15.452;2023-08-12T14:29:44;22.60;70.30
2783;DHT22;1399;47.072;15.452;2023-08-12T14:32:10;22.60;70.30
2783;DHT22;1399;47.072;15.452;2023-08-12T14:34:36;22.60;70.30
2783;DHT22;1399;47.072;15.452;2023-08-12T14:37:02;22.60;70.30
2783;DHT22;1399;47.072;15.452;2023-08-12T14:39:28;22.60;70.30
2783;DHT22;1399;47.072;15.452;2023-08-12T14:41:54;22.60;70.50
2783;DHT22;1399;47.072;15.452;2023-08-12T14:44:20;22.60;70.40
2783;DHT22;1399;47.072;15.452;2023-08-12T14:46:46;22.60;70.40
2783;DHT22;1399;47.072;15.452;2023-08-12T14:49:12;22.60;70.50
2783;DHT22;1399;47.072;15.452;2023-08-12T14:51:37;22.60;70.50
2783;DHT22;1399;47.072;15.452;2023-08-12T14:54:03;22.60;70.50
2783;DHT22;1399;47.072;15.452;2023-08-12T14:56:29;22.60;70.50
2783;DHT22;1399;47.072;15.452;2023-08-12T14:58:55;22.60;70.60
2783;DHT22;1399;47.072;15.452;2023-08-12T15:01:21;22.60;70.60
2783;DHT22;1399;47.072;15.452;2023-08-12T15:03:47;22.60;70.60
2783;DHT22;1399;47.072;15.452;2023-08-12T15:06:13;22.60;70.60
2783;DHT22;1399;47.072;15.452;2023-08-12T15:08:39;22.60;70.60
2783;DHT22;1399;47.072;15.452;2023-08-12T15:11:06;22.60;70.70
2783;DHT22;1399;47.072;15.452;2023-08-12T15:13:31;22.60;70.70
2783;DHT22;1399;47.072;15.452;2023-08-12T15:15:57;22.60;70.70
2783;DHT22;1399;47.072;15.452;2023-08-12T15:18:23;22.60;70.70
2783;DHT22;1399;47.072;15.452;2023-08-12T15:20:50;22.60;70.70
2783;DHT22;1399;47.072;15.452;2023-08-12T15:23:16;22.60;70.70
2783;DHT22;1399;47.072;15.452;2023-08-12T15:25:45;22.60;70.70
2783;DHT22;1399;47.072;15.452;2023-08-12T15:28:12;22.60;70.70
2783;DHT22;1399;47.072;15.452;2023-08-12T15:30:38;22.60;70.70
2783;DHT22;1399;47.072;15.452;2023-08-12T15:33:05;22.60;70.80
2783;DHT22;1399;47.072;15.452;2023-08-12T15:35:32;22.50;70.80
2783;DHT22;1399;47.072;15.452;2023-08-12T15:37:58;22.50;70.80
2783;DHT22;1399;47.072;15.452;2023-08-12T15:40:24;22.50;70.80
2783;DHT22;1399;47.072;15.452;2023-08-12T15:42:50;22.50;70.90
2783;DHT22;1399;47.072;15.452;2023-08-12T15:45:16;22.50;70.90
2783;DHT22;1399;47.072;15.452;2023-08-12T15:47:42;22.50;71.70
2783;DHT22;1399;47.072;15.452;2023-08-12T15:50:08;22.50;71.00
2783;DHT22;1399;47.072;15.452;2023-08-12T15:52:34;22.50;71.00
2783;DHT22;1399;47.072;15.452;2023-08-12T15:55:03;22.50;71.00